Time;durP1;ratioP1;P1;durP2;ratioP2;P2;SDS_P1;SDS_P2;PMS_P1;PMS_P2;Temp;Humidity;BMP_temperature;BMP_pressure;BME280_temperature;BME280_humidity;BME280_pressure;Samples;Min_cycle;Max_cycle;Signal;HPM_P1;HPM_P2
2022/08/20 00:01:43;;;;;;;2.70;1.97;;;21.90;99.90;;;;;;5075213;28;20469;-56
2022/08/20 00:04:10;;;;;;;2.40;2.20;;;21.80;99.90;;;;;;5074925;28;20930;-56
2022/08/20 00:06:37;;;;;;;2.20;2.00;;;21.80;99.90;;;;;;5075015;28;20882;-57
2022/08/20 00:09:05;;;;;;;2.70;2.40;;;21.70;99.90;;;;;;5074873;28;20458;-57
2022/08/20 00:11:33;;;;;;;2.47;2.27;;;21.90;99.90;;;;;;5074581;28;20563;-57
2022/08/20 00:14:03;;;;;;;3.07;2.20;;;22.00;99.90;;;;;;5074540;28;20444;-57
2022/08/20 00:16:32;;;;;;;2.43;2.23;;;21.80;99.90;;;;;;5074607;28;21021;-57
2022/08/20 00:19:02;;;;;;;2.53;2.17;;;21.90;99.90;;;;;;5074500;28;20481;-57
2022/08/20 00:21:29;;;;;;;3.00;2.30;;;21.80;99.90;;;;;;5074592;28;20552;-57
2022/08/20 00:23:56;;;;;;;2.77;2.17;;;21.70;99.90;;;;;;5074838;28;20451;-57
2022/08/20 00:26:25;;;;;;;4.50;2.00;;;21.80;99.90;;;;;;5074740;28;20521;-56
2022/08/20 00:28:53;;;;;;;2.10;1.90;;;21.70;99.90;;;;;;5074667;28;20869;-56
2022/08/20 00:31:23;;;;;;;4.60;2.23;;;21.60;99.90;;;;;;5074424;28;20464;-56
2022/08/20 00:33:51;;;;;;;5.10;3.07;;;21.60;99.90;;;;;;5074596;28;20452;-56
2022/08/20 00:36:20;;;;;;;2.73;2.30;;;21.50;99.90;;;;;;5074487;28;20523;-56
2022/08/20 00:38:48;;;;;;;2.10;2.00;;;21.50;99.90;;;;;;5074382;28;20540;-56
2022/08/20 00:41:20;;;;;;;2.50;2.30;;;21.50;99.90;;;;;;5074312;28;20476;-56
2022/08/20 00:43:50;;;;;;;5.27;2.23;;;21.50;99.90;;;;;;5074052;28;20476;-56
2022/08/20 00:46:21;;;;;;;2.10;1.90;;;21.50;99.90;;;;;;5074571;28;20826;-56
2022/08/20 00:48:51;;;;;;;2.50;2.30;;;21.60;99.90;;;;;;5074404;28;20497;-56
2022/08/20 00:51:33;;;;;;;2.10;1.90;;;21.70;99.90;;;;;;5073958;28;20547;-57
2022/08/20 00:54:05;;;;;;;3.67;2.13;;;21.70;99.90;;;;;;5074259;28;20443;-56
2022/08/20 00:56:33;;;;;;;1.83;1.73;;;21.70;99.90;;;;;;5074159;28;20468;-57
2022/08/20 00:59:02;;;;;;;3.93;2.10;;;21.70;99.90;;;;;;5073938;28;20539;-56
2022/08/20 01:01:33;;;;;;;2.20;2.00;;;21.70;99.90;;;;;;5073742;28;20979;-56
2022/08/20 01:04:00;;;;;;;2.40;2.20;;;21.70;99.90;;;;;;5074070;28;20433;-56
2022/08/20 01:06:29;;;;;;;2.37;2.10;;;21.60;99.90;;;;;;5074180;28;20527;-56
2022/08/20 01:08:56;;;;;;;2.67;2.03;;;21.60;99.90;;;;;;5073842;28;20455;-56
2022/08/20 01:11:31;;;;;;;2.47;1.83;;;21.70;99.90;;;;;;5073447;28;20574;-56
2022/08/20 01:13:58;;;;;;;2.30;2.07;;;21.60;99.90;;;;;;5073622;28;20432;-57
2022/08/20 01:16:30;;;;;;;2.10;1.90;;;21.60;99.90;;;;;;5073922;28;20480;-57
2022/08/20 01:18:59;;;;;;;1.90;1.80;;;21.70;99.90;;;;;;5073824;28;20464;-56
2022/08/20 01:21:31;;;;;;;2.30;2.10;;;21.60;99.90;;;;;;5073389;28;20551;-56
2022/08/20 01:24:05;;;;;;;2.70;2.30;;;21.70;99.90;;;;;;5073795;28;20433;-56
2022/08/20 01:26:38;;;;;;;2.83;1.90;;;21.60;99.90;;;;;;5072925;28;20424;-57
2022/08/20 01:29:08;;;;;;;3.33;2.30;;;21.60;99.90;;;;;;5073922;28;20448;-57
2022/08/20 01:31:37;;;;;;;2.23;2.03;;;21.50;99.90;;;;;;5073601;28;20472;-57
2022/08/20 01:34:08;;;;;;;3.60;2.20;;;21.50;99.90;;;;;;5073273;28;20459;-57
2022/08/20 01:36:39;;;;;;;1.90;1.80;;;21.60;99.90;;;;;;5073696;28;20468;-57
2022/08/20 01:39:10;;;;;;;2.03;1.90;;;21.70;99.90;;;;;;5073288;28;20420;-56
2022/08/20 01:41:51;;;;;;;2.77;1.83;;;21.60;99.90;;;;;;5073435;28;20460;-57
2022/08/20 01:44:19;;;;;;;2.70;2.40;;;21.60;99.90;;;;;;5073230;28;20899;-56
2022/08/20 01:46:54;;;;;;;2.10;2.00;;;21.70;99.90;;;;;;5073353;28;20448;-56
2022/08/20 01:49:25;;;;;;;3.07;1.90;;;21.60;99.90;;;;;;5073351;28;20476;-57
2022/08/20 01:51:54;;;;;;;2.03;1.87;;;21.70;99.90;;;;;;5073361;28;20461;-57
2022/08/20 01:54:22;;;;;;;2.50;2.30;;;21.80;99.90;;;;;;5073046;28;21006;-56
2022/08/20 01:57:00;;;;;;;2.17;2.03;;;21.90;99.90;;;;;;5073385;28;20494;-57
2022/08/20 01:59:28;;;;;;;2.20;2.00;;;21.90;99.90;;;;;;5073203;28;20432;-56
2022/08/20 02:01:56;;;;;;;12.60;11.23;;;21.80;99.90;;;;;;5073186;28;20548;-57
2022/08/20 02:04:24;;;;;;;2.30;2.10;;;21.90;99.90;;;;;;5073291;28;20459;-56
2022/08/20 02:06:55;;;;;;;2.37;2.17;;;21.90;99.90;;;;;;5073391;28;20447;-57
2022/08/20 02:09:29;;;;;;;2.63;2.17;;;22.00;99.90;;;;;;5073282;28;20436;-56
2022/08/20 02:11:58;;;;;;;2.03;1.80;;;22.10;99.90;;;;;;5072848;28;20475;-57
2022/08/20 02:14:27;;;;;;;2.37;2.17;;;22.20;99.90;;;;;;5072835;28;20954;-57
2022/08/20 02:16:57;;;;;;;5.23;2.20;;;22.00;99.90;;;;;;5073204;28;20491;-56
2022/08/20 02:19:27;;;;;;;2.23;2.00;;;21.90;99.90;;;;;;5073111;28;20488;-56
2022/08/20 02:21:58;;;;;;;3.03;1.87;;;21.90;99.90;;;;;;5073081;28;20478;-57
2022/08/20 02:24:26;;;;;;;3.03;2.10;;;21.90;99.90;;;;;;5072765;28;20433;-57
2022/08/20 02:26:53;;;;;;;1.97;1.77;;;21.90;99.90;;;;;;5072992;28;20779;-57
2022/08/20 02:29:25;;;;;;;2.30;2.10;;;21.90;99.90;;;;;;5072767;28;20451;-57
2022/08/20 02:31:53;;;;;;;1.80;1.70;;;21.90;99.90;;;;;;5072978;28;20473;-57
2022/08/20 02:34:20;;;;;;;1.97;1.80;;;21.90;99.90;;;;;;5072832;28;20488;-56
2022/08/20 02:36:48;;;;;;;2.23;2.03;;;21.90;99.90;;;;;;5073725;28;20483;-56
2022/08/20 02:39:15;;;;;;;3.10;1.77;;;21.90;99.90;;;;;;5076482;28;20448;-57
2022/08/20 02:41:42;;;;;;;2.00;1.80;;;21.90;99.90;;;;;;5076916;28;20478;-56
2022/08/20 02:44:09;;;;;;;2.57;2.00;;;21.90;99.90;;;;;;5076335;28;20483;-57
2022/08/20 02:46:38;;;;;;;2.33;1.87;;;22.00;99.90;;;;;;5076663;28;20440;-56
2022/08/20 02:49:06;;;;;;;1.83;1.60;;;21.90;99.90;;;;;;5076686;28;20451;-57
2022/08/20 02:51:33;;;;;;;2.10;1.90;;;21.80;99.90;;;;;;5076551;28;20499;-58
2022/08/20 02:54:00;;;;;;;2.30;2.10;;;21.70;99.90;;;;;;5076544;28;20475;-58
2022/08/20 02:56:28;;;;;;;2.70;2.33;;;21.70;99.90;;;;;;5076287;28;20811;-57
2022/08/20 02:58:55;;;;;;;2.63;2.03;;;21.70;99.90;;;;;;5076843;28;20454;-57
2022/08/20 03:01:23;;;;;;;2.07;1.90;;;21.70;99.90;;;;;;5076057;28;21014;-57
2022/08/20 03:03:51;;;;;;;2.07;1.87;;;21.70;99.90;;;;;;5076427;28;20474;-57
2022/08/20 03:06:20;;;;;;;5.40;2.60;;;21.70;99.90;;;;;;5076191;28;20534;-57
2022/08/20 03:08:47;;;;;;;2.37;2.17;;;21.90;99.90;;;;;;5076043;28;20491;-57
2022/08/20 03:11:15;;;;;;;3.10;1.93;;;21.80;99.90;;;;;;5075915;28;20479;-57
2022/08/20 03:13:42;;;;;;;2.30;2.10;;;21.60;99.90;;;;;;5076377;28;20536;-58
2022/08/20 03:16:09;;;;;;;3.40;1.80;;;21.60;99.90;;;;;;5076143;28;20455;-57
2022/08/20 03:18:42;;;;;;;3.87;2.07;;;21.60;99.90;;;;;;5075727;28;20994;-57
2022/08/20 03:21:12;;;;;;;2.40;2.20;;;21.60;99.90;;;;;;5075814;28;20547;-57
2022/08/20 03:23:40;;;;;;;2.80;2.07;;;21.70;99.90;;;;;;5075946;28;20563;-57
2022/08/20 03:26:10;;;;;;;3.33;2.50;;;21.70;99.90;;;;;;5075990;28;20949;-57
2022/08/20 03:28:37;;;;;;;2.80;2.60;;;21.80;99.90;;;;;;5075937;28;20470;-58
2022/08/20 03:31:05;;;;;;;2.30;2.10;;;21.80;99.90;;;;;;5075935;28;20496;-57
2022/08/20 03:33:32;;;;;;;2.77;2.17;;;21.70;99.90;;;;;;5075647;28;20436;-57
2022/08/20 03:35:59;;;;;;;2.37;2.17;;;21.50;99.90;;;;;;5075830;28;20447;-57
2022/08/20 03:38:28;;;;;;;2.40;2.20;;;21.50;99.90;;;;;;5075770;28;20480;-57
2022/08/20 03:40:55;;;;;;;2.53;2.33;;;21.50;99.90;;;;;;5075462;28;20975;-57
2022/08/20 03:43:22;;;;;;;2.03;1.93;;;21.40;99.90;;;;;;5075105;28;21045;-57
2022/08/20 03:45:50;;;;;;;2.63;2.17;;;21.30;99.90;;;;;;5075724;28;20823;-57
2022/08/20 03:48:20;;;;;;;2.70;2.50;;;21.40;99.90;;;;;;5074582;28;20451;-58
2022/08/20 03:50:49;;;;;;;2.60;2.23;;;21.50;99.90;;;;;;5075042;28;20473;-57
2022/08/20 03:53:17;;;;;;;3.07;2.50;;;21.50;99.90;;;;;;5075301;28;20499;-57
2022/08/20 03:55:47;;;;;;;4.50;2.30;;;21.50;99.90;;;;;;5075079;28;20882;-56
2022/08/20 03:58:16;;;;;;;2.60;2.40;;;21.60;99.90;;;;;;5075020;28;20982;-57
2022/08/20 04:00:48;;;;;;;7.77;2.47;;;21.70;99.90;;;;;;5074924;28;20974;-57
2022/08/20 04:03:16;;;;;;;2.90;2.70;;;21.70;99.90;;;;;;5075723;28;20429;-57
2022/08/20 04:05:43;;;;;;;2.70;2.50;;;;;;;;;;5075273;28;20870;-57
2022/08/20 04:08:18;;;;;;;3.73;2.60;;;21.80;99.90;;;;;;5074816;28;20811;-57
2022/08/20 04:10:48;;;;;;;3.20;2.40;;;21.70;99.90;;;;;;5075124;28;20483;-57
2022/08/20 04:13:16;;;;;;;5.20;2.47;;;21.70;99.90;;;;;;5075180;28;20455;-56
2022/08/20 04:15:45;;;;;;;2.90;2.70;;;21.70;99.90;;;;;;5075014;28;20445;-57
2022/08/20 04:18:13;;;;;;;3.47;3.17;;;21.60;99.90;;;;;;5074620;28;20476;-57
2022/08/20 04:20:43;;;;;;;3.80;2.97;;;21.50;99.90;;;;;;5074902;28;20476;-57
2022/08/20 04:23:10;;;;;;;4.10;2.60;;;21.50;99.90;;;;;;5074824;28;20527;-57
2022/08/20 04:25:40;;;;;;;3.67;2.60;;;21.50;99.90;;;;;;5074521;28;20943;-57
2022/08/20 04:28:13;;;;;;;2.77;2.47;;;21.50;99.90;;;;;;5074558;28;20450;-57
2022/08/20 04:30:41;;;;;;;3.00;2.80;;;21.60;99.90;;;;;;5074833;28;20548;-57
2022/08/20 04:33:08;;;;;;;2.70;2.50;;;21.60;99.90;;;;;;5074719;28;20487;-57
2022/08/20 04:35:36;;;;;;;3.43;3.13;;;21.60;99.90;;;;;;5074595;28;20456;-58
2022/08/20 04:38:06;;;;;;;3.77;3.23;;;21.60;99.90;;;;;;5074279;28;21065;-57
2022/08/20 04:40:54;;;;;;;4.07;3.00;;;21.60;99.90;;;;;;5074129;28;20966;-57
2022/08/20 04:43:26;;;;;;;3.50;3.20;;;21.40;99.90;;;;;;5074089;28;20476;-57
2022/08/20 04:45:54;;;;;;;2.83;2.63;;;21.40;99.90;;;;;;5074141;28;20888;-57
2022/08/20 04:48:23;;;;;;;4.70;2.87;;;21.60;99.90;;;;;;5074288;28;20870;-57
2022/08/20 04:50:52;;;;;;;3.50;3.20;;;21.50;99.90;;;;;;5073990;28;20472;-56
2022/08/20 04:53:22;;;;;;;3.63;3.33;;;21.30;99.90;;;;;;5073982;28;20452;-58
2022/08/20 04:55:50;;;;;;;3.67;3.37;;;21.20;99.90;;;;;;5074166;28;20448;-57
2022/08/20 04:58:20;;;;;;;3.80;3.50;;;21.10;99.90;;;;;;5074192;28;20506;-57
2022/08/20 05:00:51;;;;;;;3.67;3.37;;;21.20;99.90;;;;;;5073165;28;20556;-57
2022/08/20 05:03:20;;;;;;;4.47;3.40;;;21.10;99.90;;;;;;5073831;28;20429;-57
2022/08/20 05:05:47;;;;;;;3.80;3.40;;;21.00;99.90;;;;;;5073718;28;20454;-57
2022/08/20 05:08:15;;;;;;;3.73;3.43;;;21.20;99.90;;;;;;5073806;28;21006;-57
2022/08/20 05:10:44;;;;;;;6.73;3.53;;;21.10;99.90;;;;;;5073622;28;20555;-57
2022/08/20 05:13:11;;;;;;;4.90;4.03;;;21.00;99.90;;;;;;5073790;28;20535;-57
2022/08/20 05:15:39;;;;;;;3.70;3.40;;;20.90;99.90;;;;;;5073683;28;20535;-57
2022/08/20 05:18:09;;;;;;;5.53;3.60;;;21.00;99.90;;;;;;5073442;28;21127;-57
2022/08/20 05:20:39;;;;;;;4.80;3.50;;;21.00;99.90;;;;;;5073254;28;20548;-57
2022/08/20 05:23:08;;;;;;;4.27;3.90;;;20.90;99.90;;;;;;5073865;28;20457;-57
2022/08/20 05:25:36;;;;;;;4.23;3.93;;;20.90;99.90;;;;;;5073452;28;20853;-58
2022/08/20 05:28:08;;;;;;;3.90;3.70;;;20.70;99.90;;;;;;5073252;28;20451;-57
2022/08/20 05:30:37;;;;;;;4.43;4.03;;;20.70;99.90;;;;;;5073586;28;20464;-58
2022/08/20 05:33:05;;;;;;;3.97;3.50;;;20.60;99.90;;;;;;5073751;28;20455;-57
2022/08/20 05:35:37;;;;;;;4.27;3.90;;;20.60;99.90;;;;;;5073293;28;20795;-57
2022/08/20 05:38:04;;;;;;;4.77;4.37;;;20.60;99.90;;;;;;5073528;28;20476;-57
2022/08/20 05:40:32;;;;;;;4.03;3.73;;;20.70;99.90;;;;;;5073525;28;20498;-56
2022/08/20 05:42:59;;;;;;;4.37;3.87;;;20.70;99.90;;;;;;5073017;28;20480;-57
2022/08/20 05:45:26;;;;;;;4.13;3.83;;;20.70;99.90;;;;;;5073470;28;20450;-57
2022/08/20 05:47:54;;;;;;;4.03;3.63;;;20.70;99.90;;;;;;5073571;28;20539;-57
2022/08/20 05:50:21;;;;;;;4.63;4.23;;;20.70;99.90;;;;;;5073054;28;20514;-57
2022/08/20 05:52:49;;;;;;;4.23;3.83;;;20.80;99.90;;;;;;5073114;28;20455;-57
2022/08/20 05:55:16;;;;;;;3.90;3.60;;;20.80;99.90;;;;;;5073369;28;20547;-57
2022/08/20 05:57:44;;;;;;;4.50;4.10;;;20.90;99.90;;;;;;5073388;28;20480;-57
2022/08/20 06:00:14;;;;;;;7.07;4.40;;;21.00;99.90;;;;;;5072973;28;20521;-57
2022/08/20 06:05:27;;;;;;;4.30;3.90;;;20.90;99.90;;;;;;5073081;28;20416;-57
2022/08/20 06:07:55;;;;;;;5.13;4.47;;;21.00;99.90;;;;;;5072947;28;20440;-57
2022/08/20 06:10:22;;;;;;;4.40;4.00;;;21.00;99.90;;;;;;5072849;28;20531;-57
2022/08/20 06:12:52;;;;;;;3.63;3.33;;;21.20;99.90;;;;;;5075893;28;20428;-57
2022/08/20 06:15:19;;;;;;;3.63;3.33;;;21.30;99.90;;;;;;5077098;28;20887;-57
2022/08/20 06:17:46;;;;;;;4.67;3.97;;;21.40;99.90;;;;;;5076896;28;20482;-57
2022/08/20 06:20:13;;;;;;;3.70;3.40;;;21.50;99.90;;;;;;5077024;28;20479;-57
2022/08/20 06:22:41;;;;;;;3.70;3.40;;;21.50;99.90;;;;;;5077334;28;20444;-57
2022/08/20 06:25:10;;;;;;;4.20;3.80;;;21.60;99.90;;;;;;5076897;28;20791;-57
2022/08/20 06:27:39;;;;;;;4.63;4.23;;;21.60;99.90;;;;;;5077057;28;20531;-57
2022/08/20 06:30:07;;;;;;;3.77;3.47;;;21.50;99.90;;;;;;5076703;28;20449;-57
2022/08/20 06:32:35;;;;;;;4.20;3.80;;;21.50;99.90;;;;;;5077079;28;20451;-57
2022/08/20 06:35:04;;;;;;;4.23;3.83;;;21.40;99.90;;;;;;5076625;28;21026;-57
2022/08/20 06:37:35;;;;;;;3.67;3.37;;;21.50;99.90;;;;;;5076665;28;20460;-57
2022/08/20 06:40:06;;;;;;;4.07;3.67;;;21.50;99.90;;;;;;5076917;28;20437;-57
2022/08/20 06:42:35;;;;;;;4.20;3.90;;;21.60;99.90;;;;;;5076506;28;20472;-56
2022/08/20 06:45:04;;;;;;;5.03;3.77;;;21.50;99.90;;;;;;5076782;28;20511;-58
2022/08/20 06:47:32;;;;;;;3.90;3.60;;;21.60;99.90;;;;;;5076380;28;20491;-56
2022/08/20 06:50:00;;;;;;;4.03;3.60;;;21.50;99.90;;;;;;5076363;28;20448;-56
2022/08/20 06:52:27;;;;;;;4.07;3.67;;;21.60;99.90;;;;;;5076186;28;20548;-56
2022/08/20 06:54:54;;;;;;;4.30;3.90;;;21.80;99.90;;;;;;5076179;28;20535;-57
2022/08/20 06:57:21;;;;;;;4.23;3.93;;;21.70;99.90;;;;;;5076633;28;20833;-56
2022/08/20 06:59:50;;;;;;;4.10;3.27;;;21.50;99.90;;;;;;5076092;28;20559;-57
2022/08/20 07:02:17;;;;;;;3.80;3.50;;;21.60;99.90;;;;;;5076316;28;20470;-57
2022/08/20 07:04:44;;;;;;;3.80;3.50;;;21.70;99.90;;;;;;5076474;28;20448;-57
2022/08/20 07:07:17;;;;;;;3.47;3.13;;;21.50;99.90;;;;;;5075977;28;20539;-56
2022/08/20 07:09:45;;;;;;;3.70;3.40;;;21.60;99.90;;;;;;5076047;28;20441;-58
2022/08/20 07:12:12;;;;;;;4.70;3.63;;;21.60;99.90;;;;;;5076457;28;20819;-57
2022/08/20 07:14:40;;;;;;;5.33;3.10;;;21.70;99.90;;;;;;5075859;28;20939;-56
2022/08/20 07:17:08;;;;;;;4.13;3.77;;;21.60;99.90;;;;;;5076147;28;20455;-57
2022/08/20 07:19:36;;;;;;;4.70;4.27;;;21.80;99.90;;;;;;5075779;28;20475;-56
2022/08/20 07:22:04;;;;;;;4.87;4.10;;;21.90;99.90;;;;;;5075916;28;20521;-56
2022/08/20 07:24:31;;;;;;;4.00;3.63;;;21.90;99.90;;;;;;5074508;28;20456;-56
2022/08/20 07:26:59;;;;;;;4.30;4.00;;;21.90;99.90;;;;;;5075989;28;20444;-56
2022/08/20 07:32:33;;;;;;;4.93;3.80;;;21.90;99.90;;;;;;5075764;28;20451;-56
2022/08/20 07:35:00;;;;;;;4.37;3.97;;;22.00;99.90;;;;;;5075926;28;20559;-56
2022/08/20 07:37:27;;;;;;;6.33;3.23;;;22.00;99.90;;;;;;5075790;28;20448;-57
2022/08/20 07:39:54;;;;;;;4.33;3.93;;;22.20;99.90;;;;;;5075244;28;21028;-57
2022/08/20 07:42:22;;;;;;;5.43;4.10;;;22.30;99.90;;;;;;5075664;28;20484;-56
2022/08/20 07:44:49;;;;;;;4.80;4.17;;;22.50;99.90;;;;;;5075545;28;20467;-56
2022/08/20 07:47:21;;;;;;;4.30;3.47;;;22.80;99.90;;;;;;5075534;28;20449;-56
2022/08/20 07:49:48;;;;;;;4.90;4.50;;;23.00;99.90;;;;;;5075405;28;20429;-57
2022/08/20 07:52:15;;;;;;;3.90;3.60;;;23.00;99.90;;;;;;5075208;28;20950;-56
2022/08/20 07:54:42;;;;;;;4.07;3.67;;;23.00;99.90;;;;;;5075474;28;20459;-57
2022/08/20 07:57:10;;;;;;;3.63;3.33;;;23.20;99.90;;;;;;5075711;28;20535;-56
2022/08/20 07:59:38;;;;;;;3.53;3.23;;;23.30;99.90;;;;;;5075395;28;20480;-56
2022/08/20 08:02:05;;;;;;;3.70;3.40;;;23.50;99.90;;;;;;5074795;28;20472;-56
2022/08/20 08:04:35;;;;;;;3.10;2.90;;;23.70;99.90;;;;;;5075190;28;20459;-58
2022/08/20 08:07:03;;;;;;;2.80;2.60;;;23.60;99.90;;;;;;5075332;28;20825;-57
2022/08/20 08:09:32;;;;;;;4.00;3.20;;;23.60;99.90;;;;;;5074849;28;20920;-57
2022/08/20 08:12:01;;;;;;;4.20;3.90;;;23.70;99.90;;;;;;5075219;28;20453;-57
2022/08/20 08:14:34;;;;;;;3.90;3.50;;;23.60;99.90;;;;;;5074863;28;20498;-58
2022/08/20 08:17:04;;;;;;;3.33;3.03;;;23.30;99.90;;;;;;5075100;28;20425;-57
2022/08/20 08:19:37;;;;;;;4.20;3.80;;;23.00;99.90;;;;;;5074520;28;20473;-57
2022/08/20 08:22:06;;;;;;;5.23;3.70;;;23.20;99.90;;;;;;5074619;28;20461;-57
2022/08/20 08:24:34;;;;;;;4.13;3.73;;;23.30;99.90;;;;;;5074983;28;20456;-57
2022/08/20 08:27:01;;;;;;;3.80;3.50;;;23.30;99.90;;;;;;5074452;28;20493;-57
2022/08/20 08:29:29;;;;;;;3.70;3.40;;;23.60;99.90;;;;;;5074373;28;20444;-57
2022/08/20 08:31:56;;;;;;;3.37;3.13;;;23.60;99.90;;;;;;5074659;28;20464;-57
2022/08/20 08:34:24;;;;;;;3.80;3.50;;;23.70;99.90;;;;;;5074355;28;20444;-57
2022/08/20 08:36:53;;;;;;;3.70;3.33;;;23.80;99.90;;;;;;5074583;28;20448;-57
2022/08/20 08:39:21;;;;;;;3.67;3.37;;;24.40;99.90;;;;;;5074569;28;20499;-57
2022/08/20 08:41:50;;;;;;;3.50;3.20;;;25.30;99.90;;;;;;5074577;28;20967;-57
2022/08/20 08:44:22;;;;;;;3.23;3.00;;;25.90;99.90;;;;;;5074144;28;20925;-58
2022/08/20 08:46:52;;;;;;;3.13;2.83;;;25.90;99.90;;;;;;5074476;28;20436;-57
2022/08/20 08:49:23;;;;;;;3.20;3.00;;;25.40;99.90;;;;;;5074779;28;20441;-57
2022/08/20 08:51:57;;;;;;;3.33;3.13;;;25.20;99.90;;;;;;5074498;28;20468;-57
2022/08/20 08:54:28;;;;;;;3.70;3.40;;;24.80;99.90;;;;;;5073822;28;20436;-56
2022/08/20 08:56:55;;;;;;;5.47;4.50;;;24.50;99.90;;;;;;5074049;28;20788;-56
2022/08/20 08:59:23;;;;;;;3.70;3.40;;;24.70;99.90;;;;;;5073857;28;20483;-57
2022/08/20 09:01:53;;;;;;;4.27;3.87;;;24.70;99.90;;;;;;5073714;28;20472;-57
2022/08/20 09:04:22;;;;;;;4.17;3.77;;;24.70;99.90;;;;;;5073756;28;20539;-57
2022/08/20 09:06:52;;;;;;;3.70;3.40;;;24.60;99.90;;;;;;5073762;28;20934;-56
2022/08/20 09:09:25;;;;;;;3.70;3.20;;;24.70;99.90;;;;;;5073741;28;20817;-57
2022/08/20 09:11:55;;;;;;;5.57;3.80;;;24.80;99.90;;;;;;5073991;28;20559;-56
2022/08/20 09:14:23;;;;;;;9.50;4.10;;;25.50;99.90;;;;;;5073444;28;20454;-57
2022/08/20 09:16:51;;;;;;;3.80;3.50;;;26.10;99.90;;;;;;5073739;28;20871;-57
2022/08/20 09:19:18;;;;;;;4.10;3.70;;;26.00;99.90;;;;;;5073654;28;20476;-57
2022/08/20 09:21:45;;;;;;;4.27;3.97;;;25.60;99.90;;;;;;5073562;28;20475;-56
2022/08/20 09:24:12;;;;;;;4.90;3.40;;;25.50;99.90;;;;;;5073804;28;20506;-58
2022/08/20 09:26:41;;;;;;;3.70;3.40;;;25.50;99.90;;;;;;5073331;28;20444;-56
2022/08/20 09:29:08;;;;;;;6.93;3.20;;;25.40;99.90;;;;;;5073552;28;20829;-57
2022/08/20 09:31:36;;;;;;;4.70;2.97;;;25.10;99.90;;;;;;5073295;28;21012;-57
2022/08/20 09:34:03;;;;;;;3.47;3.17;;;24.90;99.90;;;;;;5072279;28;20457;-57
2022/08/20 09:36:30;;;;;;;2.50;2.30;;;25.00;99.90;;;;;;5073357;28;20502;-56
2022/08/20 09:38:57;;;;;;;2.93;2.70;;;25.00;99.90;;;;;;5073200;28;20480;-56
2022/08/20 09:41:24;;;;;;;2.80;2.60;;;25.10;99.90;;;;;;5073548;28;20504;-56
2022/08/20 09:43:53;;;;;;;3.60;2.67;;;25.10;99.90;;;;;;5072941;28;20782;-56
2022/08/20 09:46:20;;;;;;;2.60;2.40;;;24.90;99.90;;;;;;5072409;28;20460;-57
2022/08/20 09:48:47;;;;;;;2.83;2.37;;;24.60;99.90;;;;;;5073389;28;20546;-56
2022/08/20 09:51:14;;;;;;;2.30;2.10;;;25.20;99.90;;;;;;5072756;28;21006;-56
2022/08/20 09:53:42;;;;;;;2.63;2.43;;;26.10;99.90;;;;;;5073056;28;20950;-56
2022/08/20 09:56:10;;;;;;;4.40;2.43;;;27.00;99.90;;;;;;5073110;28;20949;-55
2022/08/20 09:58:45;;;;;;;2.40;2.20;;;27.90;99.90;;;;;;5072914;28;20951;-57
2022/08/20 10:01:17;;;;;;;2.57;2.10;;;28.30;99.90;;;;;;5073285;28;20468;-57
2022/08/20 10:03:46;;;;;;;2.50;2.13;;;28.10;99.90;;;;;;5072885;28;20439;-57
2022/08/20 10:06:15;;;;;;;2.30;2.13;;;27.60;99.90;;;;;;5073330;28;20517;-57
2022/08/20 10:08:42;;;;;;;1.60;1.50;;;27.40;99.90;;;;;;5072908;28;20974;-57
2022/08/20 10:11:09;;;;;;;1.60;1.50;;;26.90;99.90;;;;;;5073015;28;20482;-56
2022/08/20 10:13:36;;;;;;;2.10;2.00;;;26.60;99.90;;;;;;5073020;28;20436;-57
2022/08/20 10:16:04;;;;;;;3.73;2.00;;;26.50;99.90;;;;;;5072805;28;20451;-57
2022/08/20 10:18:34;;;;;;;2.27;2.07;;;26.40;99.90;;;;;;5072786;28;20957;-57
2022/08/20 10:21:01;;;;;;;2.53;2.17;;;26.30;99.90;;;;;;5072643;28;20495;-57
2022/08/20 10:23:28;;;;;;;2.63;2.43;;;26.50;99.90;;;;;;5073146;28;20447;-56
2022/08/20 10:25:55;;;;;;;3.07;2.00;;;26.60;99.90;;;;;;5072945;28;20444;-57
2022/08/20 10:28:22;;;;;;;2.03;1.93;;;26.60;99.90;;;;;;5072972;28;20450;-57
2022/08/20 10:30:49;;;;;;;2.00;1.80;;;25.90;99.90;;;;;;5072857;28;20517;-57
2022/08/20 10:33:16;;;;;;;1.70;1.50;;;25.60;99.90;;;;;;5072965;28;20448;-57
2022/08/20 10:35:45;;;;;;;1.50;1.40;;;25.60;99.90;;;;;;5072836;28;20448;-57
2022/08/20 10:38:12;;;;;;;1.50;1.40;;;25.70;99.90;;;;;;5072710;28;20452;-57
2022/08/20 10:40:39;;;;;;;1.50;1.40;;;26.40;99.90;;;;;;5072228;28;20492;-56
2022/08/20 10:43:06;;;;;;;1.50;1.40;;;27.20;99.90;;;;;;5072656;28;20502;-56
2022/08/20 10:45:33;;;;;;;2.20;2.00;;;28.00;99.90;;;;;;5072796;28;20451;-56
2022/08/20 10:48:01;;;;;;;1.90;1.60;;;28.80;99.90;;;;;;5072516;28;20457;-57
2022/08/20 10:50:28;;;;;;;3.03;1.80;;;29.30;99.50;;;;;;5072365;28;20461;-57
2022/08/20 10:52:57;;;;;;;1.67;1.57;;;;;;;;;;5072571;28;20460;-57
2022/08/20 10:55:24;;;;;;;2.67;1.80;;;27.10;99.90;;;;;;5072704;28;20448;-56
2022/08/20 10:57:51;;;;;;;2.37;1.90;;;26.90;99.90;;;;;;5073864;28;20452;-57
2022/08/20 11:00:19;;;;;;;1.57;1.47;;;26.20;99.90;;;;;;5076027;28;20490;-56
2022/08/20 11:02:46;;;;;;;1.60;1.50;;;25.60;99.90;;;;;;5076451;28;20449;-56
2022/08/20 11:05:13;;;;;;;1.70;1.60;;;25.10;99.90;;;;;;5076162;28;20778;-56
2022/08/20 11:07:42;;;;;;;2.07;1.93;;;24.70;99.90;;;;;;5076316;28;20799;-57
2022/08/20 11:10:11;;;;;;;2.33;1.77;;;24.40;99.90;;;;;;5075755;28;20448;-56
2022/08/20 11:12:38;;;;;;;1.80;1.70;;;24.40;99.90;;;;;;5075882;28;20409;-56
2022/08/20 11:15:07;;;;;;;5.70;1.70;;;24.50;99.90;;;;;;5075752;28;20447;-57
2022/08/20 11:17:36;;;;;;;1.73;1.57;;;24.70;99.90;;;;;;5076151;28;20801;-57
2022/08/20 11:20:06;;;;;;;1.40;1.30;;;25.10;99.90;;;;;;5075886;28;20491;-56
2022/08/20 11:22:33;;;;;;;2.03;1.60;;;25.10;99.90;;;;;;5075824;28;20452;-56
2022/08/20 11:25:00;;;;;;;1.37;1.27;;;25.20;99.90;;;;;;5076067;28;20452;-57
2022/08/20 11:27:33;;;;;;;1.30;1.20;;;25.20;99.90;;;;;;5075858;28;20451;-56
2022/08/20 11:30:00;;;;;;;1.50;1.40;;;25.40;99.90;;;;;;5075746;28;20420;-56
2022/08/20 11:32:27;;;;;;;1.40;1.20;;;25.50;99.90;;;;;;5076067;28;20466;-56
2022/08/20 11:34:54;;;;;;;1.57;1.23;;;25.30;99.90;;;;;;5075728;28;20450;-56
2022/08/20 11:37:24;;;;;;;1.50;1.40;;;25.20;99.90;;;;;;5075726;28;20475;-57
2022/08/20 11:39:52;;;;;;;1.30;1.20;;;25.00;99.90;;;;;;5075426;28;20484;-56
2022/08/20 11:42:19;;;;;;;1.40;1.30;;;25.00;99.90;;;;;;5075160;28;20946;-56
2022/08/20 11:44:47;;;;;;;2.83;1.20;;;24.80;99.90;;;;;;5075644;28;20451;-56
2022/08/20 11:47:21;;;;;;;1.40;1.30;;;24.60;99.90;;;;;;5075705;28;20448;-56
2022/08/20 11:49:57;;;;;;;1.83;1.40;;;24.60;99.90;;;;;;5075594;28;20777;-57
2022/08/20 11:52:24;;;;;;;1.50;1.40;;;24.10;99.90;;;;;;5075202;28;20429;-56
2022/08/20 11:54:51;;;;;;;1.57;1.23;;;24.10;99.90;;;;;;5075012;28;20532;-57
2022/08/20 11:57:21;;;;;;;1.53;1.43;;;24.00;99.90;;;;;;5075459;28;20535;-57
2022/08/20 11:59:51;;;;;;;2.23;1.70;;;24.00;99.90;;;;;;5075652;28;20484;-56
2022/08/20 12:02:18;;;;;;;1.40;1.30;;;24.20;99.90;;;;;;5075259;28;20464;-56
2022/08/20 12:04:45;;;;;;;1.50;1.40;;;24.50;99.90;;;;;;5075154;28;20452;-56
2022/08/20 12:07:15;;;;;;;1.80;1.23;;;24.40;99.90;;;;;;5075130;28;20455;-56
2022/08/20 12:09:43;;;;;;;1.53;1.40;;;24.30;99.90;;;;;;5074377;28;20432;-56
2022/08/20 12:12:11;;;;;;;1.50;1.40;;;24.50;99.90;;;;;;5075218;28;20950;-56
2022/08/20 12:14:38;;;;;;;1.40;1.30;;;24.70;99.90;;;;;;5074907;28;20949;-56
2022/08/20 12:17:11;;;;;;;1.47;1.37;;;24.90;99.90;;;;;;5074994;28;20470;-56
2022/08/20 12:19:39;;;;;;;1.50;1.40;;;24.60;99.90;;;;;;5074447;28;20464;-57
2022/08/20 12:22:06;;;;;;;1.60;1.50;;;24.60;99.90;;;;;;5074907;28;20473;-56
2022/08/20 12:24:33;;;;;;;1.70;1.57;;;24.50;99.90;;;;;;5074650;28;20454;-56
2022/08/20 12:27:09;;;;;;;1.33;1.23;;;24.60;99.90;;;;;;5074786;28;20455;-57
2022/08/20 12:29:37;;;;;;;1.97;1.87;;;24.80;99.90;;;;;;5074768;28;20470;-57
2022/08/20 12:32:05;;;;;;;1.63;1.20;;;24.80;99.90;;;;;;5074686;28;20479;-56
2022/08/20 12:34:35;;;;;;;3.10;1.30;;;24.80;99.90;;;;;;5074665;28;20471;-56
2022/08/20 12:37:03;;;;;;;1.90;1.60;;;24.90;99.90;;;;;;5074325;28;20939;-56
2022/08/20 12:39:32;;;;;;;2.00;1.80;;;24.90;99.90;;;;;;5074563;28;20506;-57
2022/08/20 12:42:01;;;;;;;1.43;1.33;;;25.00;99.90;;;;;;5073240;28;20851;-56
2022/08/20 12:44:28;;;;;;;1.40;1.27;;;25.10;99.90;;;;;;5034288;28;20446;-57
2022/08/20 12:47:06;;;;;;;1.70;1.60;;;25.20;99.90;;;;;;5034522;28;20445;-56
2022/08/20 12:49:40;;;;;;;1.53;1.37;;;25.50;99.90;;;;;;5034658;28;20781;-56
2022/08/20 12:52:08;;;;;;;1.70;1.60;;;25.40;99.90;;;;;;5034372;28;20462;-56
2022/08/20 12:54:35;;;;;;;1.97;1.70;;;25.40;99.90;;;;;;5033986;28;20933;-56
2022/08/20 12:57:03;;;;;;;1.90;1.53;;;25.50;99.90;;;;;;5034087;28;20449;-56
2022/08/20 12:59:30;;;;;;;1.70;1.40;;;25.20;99.90;;;;;;5034381;28;20442;-57
2022/08/20 13:01:57;;;;;;;1.70;1.60;;;25.20;99.90;;;;;;5033806;28;20480;-56